createdAt,value
2019-03-12T00:00:01.289Z,2.50
2019-03-12T00:01:01.226Z,2.80
2019-03-12T00:02:01.153Z,2.60
2019-03-12T00:03:01.082Z,2.90
2019-03-12T00:04:01.016Z,3.00
2019-03-12T00:05:00.949Z,3.00
2019-03-12T00:06:00.870Z,3.00
2019-03-12T00:07:00.787Z,2.70
2019-03-12T00:08:00.717Z,2.90
2019-03-12T00:09:00.657Z,2.80
2019-03-12T00:10:00.595Z,2.90
2019-03-12T00:11:00.509Z,2.60
2019-03-12T00:12:00.434Z,2.80
2019-03-12T00:13:00.361Z,2.90
2019-03-12T00:14:00.291Z,2.60
2019-03-12T00:15:00.373Z,2.80
2019-03-12T00:16:00.162Z,2.60
2019-03-12T00:17:00.090Z,2.70
2019-03-12T00:18:00.021Z,2.70
2019-03-12T00:18:59.933Z,2.90
2019-03-12T00:19:59.862Z,2.60
2019-03-12T00:20:59.793Z,2.40
2019-03-12T00:21:59.725Z,2.90
2019-03-12T00:22:59.662Z,2.60
2019-03-12T00:23:59.590Z,2.80
2019-03-12T00:24:59.509Z,2.40
2019-03-12T00:25:59.437Z,2.50
2019-03-12T00:26:59.382Z,2.80
2019-03-12T00:27:59.311Z,2.90
2019-03-12T00:28:59.235Z,2.50
2019-03-12T00:29:59.183Z,2.90
2019-03-12T00:30:59.083Z,2.80
2019-03-12T00:31:59.020Z,2.80
2019-03-12T00:32:58.937Z,2.50
2019-03-12T00:33:58.871Z,2.60
2019-03-12T00:34:58.819Z,3.10
2019-03-12T00:35:58.743Z,2.80
2019-03-12T00:36:58.668Z,2.60
2019-03-12T00:37:58.602Z,2.70
2019-03-12T00:38:58.509Z,2.90
2019-03-12T00:39:58.446Z,3.00
2019-03-12T00:40:58.377Z,2.80
2019-03-12T00:41:58.314Z,2.90
2019-03-12T00:42:58.224Z,2.70
2019-03-12T00:43:58.153Z,2.60
2019-03-12T00:44:58.084Z,2.90
2019-03-12T00:45:58.014Z,3.00
2019-03-12T00:46:57.952Z,3.10
2019-03-12T00:47:57.884Z,2.80
2019-03-12T00:48:57.795Z,2.70
2019-03-12T00:49:57.728Z,2.70
2019-03-12T00:50:57.663Z,2.70
2019-03-12T00:51:57.592Z,2.70
2019-03-12T00:52:57.523Z,2.90
2019-03-12T00:53:57.452Z,2.90
2019-03-12T00:54:57.363Z,3.00
2019-03-12T00:55:57.294Z,2.70
2019-03-12T00:56:57.231Z,2.60
2019-03-12T00:57:57.162Z,2.80
2019-03-12T00:58:57.076Z,2.80
2019-03-12T00:59:57.006Z,3.00
2019-03-12T01:00:56.936Z,2.90
2019-03-12T01:01:56.868Z,2.90
2019-03-12T01:02:56.798Z,2.60
2019-03-12T01:03:56.730Z,2.80
2019-03-12T01:04:56.661Z,2.70
2019-03-12T01:05:56.589Z,3.00
2019-03-12T01:06:56.500Z,2.50
2019-03-12T01:07:56.429Z,2.90
2019-03-12T01:08:56.358Z,2.70
2019-03-12T01:09:56.287Z,2.90
2019-03-12T01:10:56.252Z,2.90
2019-03-12T01:11:56.158Z,2.90
2019-03-12T01:12:56.070Z,3.00
2019-03-12T01:13:55.998Z,2.80
2019-03-12T01:14:55.953Z,2.70
2019-03-12T01:15:55.889Z,2.90
2019-03-12T01:16:55.795Z,3.10
2019-03-12T01:17:55.728Z,3.00
2019-03-12T01:18:55.636Z,2.90
2019-03-12T01:19:55.565Z,2.70
2019-03-12T01:20:55.493Z,2.60
2019-03-12T01:21:55.422Z,2.90
2019-03-12T01:22:55.419Z,2.90
2019-03-12T01:23:55.291Z,2.90
2019-03-12T01:24:55.218Z,2.80
2019-03-12T01:25:55.162Z,2.80
2019-03-12T01:26:55.059Z,2.90
2019-03-12T01:27:54.988Z,2.90
2019-03-12T01:28:54.929Z,3.00
2019-03-12T01:29:54.855Z,3.20
2019-03-12T01:30:54.774Z,2.90
2019-03-12T01:31:54.702Z,2.80
2019-03-12T01:32:54.630Z,2.70
2019-03-12T01:33:54.554Z,2.90
2019-03-12T01:34:54.494Z,3.10
2019-03-12T01:35:54.422Z,2.70
2019-03-12T01:36:54.353Z,2.90
2019-03-12T01:37:54.279Z,3.10
2019-03-12T01:38:54.201Z,2.80
2019-03-12T01:39:54.126Z,3.10
2019-03-12T01:40:54.050Z,3.20
2019-03-12T01:41:53.977Z,2.70
2019-03-12T01:42:53.920Z,3.10
2019-03-12T01:43:53.848Z,2.70
2019-03-12T01:44:53.758Z,2.80
2019-03-12T01:45:53.689Z,3.10
2019-03-12T01:46:53.629Z,2.90
2019-03-12T01:47:53.556Z,3.20
2019-03-12T01:48:53.482Z,3.00
2019-03-12T01:49:53.447Z,3.00
2019-03-12T01:50:53.324Z,3.10
2019-03-12T01:51:53.251Z,3.10
2019-03-12T01:52:53.193Z,3.00
2019-03-12T01:53:53.128Z,3.20
2019-03-12T01:54:53.038Z,3.20
2019-03-12T01:55:52.960Z,3.10
2019-03-12T01:56:52.892Z,3.30
2019-03-12T01:57:52.836Z,3.20
2019-03-12T01:58:52.759Z,3.20
2019-03-12T01:59:52.682Z,3.50
2019-03-12T02:00:52.600Z,3.10
2019-03-12T02:01:52.526Z,3.20
2019-03-12T02:02:52.469Z,3.30
2019-03-12T02:03:52.393Z,3.10
2019-03-12T02:04:52.320Z,3.30
2019-03-12T02:05:52.250Z,3.30
2019-03-12T02:06:52.176Z,3.50
2019-03-12T02:07:52.094Z,3.00
2019-03-12T02:08:52.020Z,3.10
2019-03-12T02:09:51.946Z,3.60
2019-03-12T02:10:51.881Z,3.50
2019-03-12T02:11:51.813Z,3.70
2019-03-12T02:12:51.743Z,3.30
2019-03-12T02:13:51.670Z,3.60
2019-03-12T02:14:51.585Z,3.20
2019-03-12T02:15:51.512Z,3.30
2019-03-12T02:16:51.457Z,3.40
2019-03-12T02:17:51.381Z,3.40
2019-03-12T02:18:51.293Z,3.80
2019-03-12T02:19:51.221Z,3.20
2019-03-12T02:20:51.152Z,3.70
2019-03-12T02:21:51.078Z,3.70
2019-03-12T02:22:51.020Z,3.30
2019-03-12T02:23:50.946Z,3.60
2019-03-12T02:24:53.017Z,3.40
2019-03-12T02:25:50.791Z,3.50
2019-03-12T02:26:50.731Z,3.30
2019-03-12T02:27:50.656Z,3.90
2019-03-12T02:28:50.580Z,3.60
2019-03-12T02:29:50.511Z,3.40
2019-03-12T02:30:50.429Z,3.50
2019-03-12T02:31:50.352Z,3.40
2019-03-12T02:32:50.313Z,3.40
2019-03-12T02:33:50.226Z,3.60
2019-03-12T02:34:50.135Z,3.20
2019-03-12T02:35:50.064Z,3.50
2019-03-12T02:36:49.997Z,3.30
2019-03-12T02:37:49.924Z,3.40
2019-03-12T02:38:49.861Z,3.30
2019-03-12T02:39:49.785Z,3.70
2019-03-12T02:40:49.713Z,3.50
2019-03-12T02:41:49.641Z,3.50
2019-03-12T02:42:49.558Z,3.50
2019-03-12T02:43:49.487Z,3.30
2019-03-12T02:44:49.410Z,3.30
2019-03-12T02:45:49.347Z,3.60
2019-03-12T02:46:49.277Z,3.70
2019-03-12T02:47:49.209Z,3.40
2019-03-12T02:48:49.119Z,3.20
2019-03-12T02:49:49.051Z,3.50
2019-03-12T02:50:49.000Z,3.60
2019-03-12T02:51:48.924Z,3.20
2019-03-12T02:52:48.840Z,3.20
2019-03-12T02:53:48.798Z,3.20
2019-03-12T02:54:48.690Z,3.60
2019-03-12T02:55:48.615Z,3.30
2019-03-12T02:56:48.551Z,3.70
2019-03-12T02:57:48.487Z,3.40
2019-03-12T02:58:48.395Z,3.00
2019-03-12T02:59:48.318Z,3.10
2019-03-12T03:00:48.245Z,3.20
2019-03-12T03:01:48.172Z,3.10
2019-03-12T03:02:48.112Z,2.90
2019-03-12T03:03:48.044Z,3.10
2019-03-12T03:04:47.955Z,3.20
2019-03-12T03:05:47.884Z,3.20
2019-03-12T03:06:47.843Z,3.20
2019-03-12T03:07:47.747Z,3.10
2019-03-12T03:08:47.674Z,3.00
2019-03-12T03:09:47.600Z,2.90
2019-03-12T03:10:47.531Z,3.20
2019-03-12T03:11:50.924Z,3.00
2019-03-12T03:12:47.368Z,3.10
2019-03-12T03:13:47.297Z,3.10
2019-03-12T03:14:47.236Z,3.00
2019-03-12T03:15:47.196Z,3.10
2019-03-12T03:16:47.091Z,3.10
2019-03-12T03:17:47.021Z,2.70
2019-03-12T03:18:46.938Z,3.30
2019-03-12T03:19:46.860Z,2.90
2019-03-12T03:20:46.799Z,2.70
2019-03-12T03:21:46.726Z,3.00
2019-03-12T03:22:46.638Z,3.20
2019-03-12T03:23:46.563Z,2.70
2019-03-12T03:24:46.493Z,2.90
2019-03-12T03:25:46.421Z,3.00
2019-03-12T03:26:46.357Z,3.00
2019-03-12T03:27:46.288Z,2.90
2019-03-12T03:28:46.226Z,2.60
2019-03-12T03:29:46.141Z,2.60
2019-03-12T03:30:46.051Z,3.30
2019-03-12T03:31:45.983Z,2.70
2019-03-12T03:32:45.920Z,2.90
2019-03-12T03:33:45.837Z,2.70
2019-03-12T03:34:45.792Z,3.00
2019-03-12T03:35:45.701Z,3.00
2019-03-12T03:36:45.610Z,3.20
2019-03-12T03:37:45.543Z,3.00
2019-03-12T03:38:45.483Z,2.70
2019-03-12T03:39:45.431Z,2.80
2019-03-12T03:40:45.333Z,2.70
2019-03-12T03:41:45.285Z,3.10
2019-03-12T03:42:45.168Z,2.90
2019-03-12T03:43:45.098Z,2.80
2019-03-12T03:44:45.029Z,3.00
2019-03-12T03:45:44.950Z,2.60
2019-03-12T03:46:44.886Z,2.80
2019-03-12T03:47:44.823Z,2.80
2019-03-12T03:48:44.744Z,2.80
2019-03-12T03:49:44.672Z,3.10
2019-03-12T03:50:44.587Z,2.80
2019-03-12T03:51:44.509Z,2.60
2019-03-12T03:52:44.448Z,2.80
2019-03-12T03:53:44.374Z,2.70
2019-03-12T03:54:44.296Z,2.50
2019-03-12T03:55:44.220Z,2.90
2019-03-12T03:56:44.154Z,2.70
2019-03-12T03:57:44.080Z,3.00
2019-03-12T03:58:44.009Z,2.90
2019-03-12T03:59:43.932Z,3.10
2019-03-12T04:00:43.850Z,2.80
2019-03-12T04:01:43.784Z,2.90
2019-03-12T04:02:43.719Z,2.80
2019-03-12T04:03:43.636Z,2.80
2019-03-12T04:04:43.566Z,3.00
2019-03-12T04:05:43.495Z,2.90
2019-03-12T04:06:43.407Z,2.90
2019-03-12T04:07:43.329Z,2.70
2019-03-12T04:08:43.279Z,3.00
2019-03-12T04:09:43.205Z,2.50
2019-03-12T04:10:43.111Z,2.70
2019-03-12T04:11:43.043Z,2.90
2019-03-12T04:12:42.973Z,2.80
2019-03-12T04:13:42.901Z,3.00
2019-03-12T04:14:42.831Z,3.00
2019-03-12T04:15:42.776Z,2.90
2019-03-12T04:16:42.684Z,2.70
2019-03-12T04:17:42.617Z,2.90
2019-03-12T04:18:42.524Z,3.10
2019-03-12T04:19:42.450Z,3.00
2019-03-12T04:20:42.381Z,2.80
2019-03-12T04:21:42.303Z,2.80
2019-03-12T04:22:42.248Z,3.10
2019-03-12T04:23:42.169Z,2.80
2019-03-12T04:24:42.092Z,3.20
2019-03-12T04:25:42.007Z,2.90
2019-03-12T04:26:41.942Z,3.30
2019-03-12T04:27:48.425Z,3.50
2019-03-12T04:28:41.805Z,3.20
2019-03-12T04:29:41.711Z,3.00
2019-03-12T04:30:41.640Z,3.60
2019-03-12T04:31:41.575Z,4.20
2019-03-12T04:32:41.495Z,3.90
2019-03-12T04:33:41.448Z,4.80
2019-03-12T04:34:41.437Z,4.90
2019-03-12T04:35:41.287Z,4.80
2019-03-12T04:36:41.209Z,5.00
2019-03-12T04:37:41.120Z,5.00
2019-03-12T04:38:41.050Z,5.10
2019-03-12T04:39:41.006Z,4.60
2019-03-12T04:40:40.909Z,4.50
2019-03-12T04:41:40.830Z,4.60
2019-03-12T04:42:40.754Z,4.60
2019-03-12T04:43:40.685Z,4.50
2019-03-12T04:44:40.607Z,4.30
2019-03-12T04:45:40.558Z,4.30
2019-03-12T04:46:40.474Z,4.20
2019-03-12T04:47:40.396Z,4.00
2019-03-12T04:48:40.329Z,4.40
2019-03-12T04:49:40.240Z,4.50
2019-03-12T04:50:40.162Z,4.70
2019-03-12T04:51:40.093Z,5.50
2019-03-12T04:52:40.016Z,6.30
2019-03-12T04:53:39.957Z,6.20
2019-03-12T04:54:39.885Z,7.70
2019-03-12T04:55:39.800Z,7.50
2019-03-12T04:56:39.722Z,7.90
2019-03-12T04:57:39.661Z,7.80
2019-03-12T04:58:39.587Z,7.40
2019-03-12T04:59:39.516Z,7.50
2019-03-12T05:00:39.439Z,7.20
2019-03-12T05:01:39.352Z,7.30
2019-03-12T05:02:39.276Z,7.50
2019-03-12T05:03:39.221Z,6.90
2019-03-12T05:04:39.139Z,6.90
2019-03-12T05:05:39.056Z,7.30
2019-03-12T05:06:38.986Z,7.50
2019-03-12T05:07:38.912Z,6.90
2019-03-12T05:08:38.847Z,6.40
2019-03-12T05:09:38.777Z,7.20
2019-03-12T05:10:38.703Z,6.80
2019-03-12T05:11:38.621Z,6.90
2019-03-12T05:12:38.543Z,7.00
2019-03-12T05:13:38.481Z,6.80
2019-03-12T05:14:38.406Z,6.50
2019-03-12T05:15:38.329Z,6.40
2019-03-12T05:16:38.258Z,6.50
2019-03-12T05:17:38.174Z,6.50
2019-03-12T05:18:38.100Z,6.80
2019-03-12T05:19:38.024Z,6.40
2019-03-12T05:20:37.952Z,6.10
2019-03-12T05:21:37.893Z,6.40
2019-03-12T05:22:37.814Z,6.60
2019-03-12T05:23:37.751Z,6.50
2019-03-12T05:24:37.672Z,6.20
2019-03-12T05:25:37.590Z,6.50
2019-03-12T05:26:37.510Z,5.90
2019-03-12T05:27:37.453Z,6.10
2019-03-12T05:28:37.375Z,6.20
2019-03-12T05:29:37.288Z,6.40
2019-03-12T05:30:37.220Z,5.90
2019-03-12T05:31:37.145Z,6.20
2019-03-12T05:32:37.072Z,6.00
2019-03-12T05:33:37.007Z,6.30
2019-03-12T05:34:36.934Z,6.30
2019-03-12T05:35:36.858Z,6.40
2019-03-12T05:36:36.845Z,5.50
2019-03-12T05:37:36.702Z,6.10
2019-03-12T05:38:36.629Z,6.40
2019-03-12T05:39:36.554Z,6.10
2019-03-12T05:40:36.480Z,6.00
2019-03-12T05:41:36.417Z,5.90
2019-03-12T05:42:36.346Z,6.00
2019-03-12T05:43:36.260Z,5.80
2019-03-12T05:44:36.182Z,6.00
2019-03-12T05:45:36.131Z,6.20
2019-03-12T05:46:36.052Z,5.50
2019-03-12T05:47:35.977Z,5.50
2019-03-12T05:48:35.904Z,5.80
2019-03-12T05:49:35.814Z,5.60
2019-03-12T05:50:35.752Z,4.80
2019-03-12T05:51:35.670Z,4.70
2019-03-12T05:52:35.597Z,4.50
2019-03-12T05:53:35.537Z,4.70
2019-03-12T05:54:35.460Z,5.50
2019-03-12T05:55:35.390Z,6.20
2019-03-12T05:56:35.315Z,6.80
2019-03-12T05:57:35.228Z,6.40
2019-03-12T05:58:35.154Z,6.60
2019-03-12T05:59:35.094Z,7.10
2019-03-12T06:00:35.021Z,7.30
2019-03-12T06:01:34.937Z,7.20
2019-03-12T06:02:34.867Z,7.10
2019-03-12T06:03:34.782Z,7.30
2019-03-12T06:04:34.712Z,7.20
2019-03-12T06:05:34.649Z,7.20
2019-03-12T06:06:34.575Z,7.50
2019-03-12T06:07:34.488Z,8.10
2019-03-12T06:08:34.418Z,8.30
2019-03-12T06:09:34.356Z,8.70
2019-03-12T06:10:34.363Z,9.20
2019-03-12T06:11:34.202Z,9.10
2019-03-12T06:12:34.139Z,9.20
2019-03-12T06:13:34.046Z,9.70
2019-03-12T06:14:33.971Z,9.70
2019-03-12T06:15:33.912Z,10.80
2019-03-12T06:16:33.834Z,11.30
2019-03-12T06:17:33.753Z,10.70
2019-03-12T06:18:33.674Z,10.80
2019-03-12T06:19:33.604Z,10.70
2019-03-12T06:20:33.532Z,10.30
2019-03-12T06:21:33.459Z,10.60
2019-03-12T06:22:33.436Z,9.80
2019-03-12T06:23:33.311Z,10.10
2019-03-12T06:24:33.243Z,8.90
2019-03-12T06:25:33.156Z,8.90
2019-03-12T06:26:33.074Z,9.60
2019-03-12T06:27:33.005Z,9.30
2019-03-12T06:28:32.934Z,8.80
2019-03-12T06:29:32.872Z,8.40
2019-03-12T06:30:32.794Z,8.60
2019-03-12T06:31:32.702Z,8.30
2019-03-12T06:32:32.646Z,7.80
2019-03-12T06:33:32.597Z,7.80
2019-03-12T06:34:32.495Z,8.10
2019-03-12T06:35:32.418Z,8.00
2019-03-12T06:36:32.350Z,7.40
2019-03-12T06:37:32.285Z,7.50
2019-03-12T06:38:32.183Z,7.30
2019-03-12T06:39:32.120Z,7.70
2019-03-12T06:40:32.049Z,7.40
2019-03-12T06:41:31.959Z,7.60
2019-03-12T06:42:31.882Z,7.50
2019-03-12T06:43:31.814Z,7.20
2019-03-12T06:44:31.734Z,7.60
2019-03-12T06:45:31.670Z,7.50
2019-03-12T06:46:31.601Z,7.60
2019-03-12T06:47:31.515Z,7.40
2019-03-12T06:48:31.470Z,6.90
2019-03-12T06:49:31.379Z,6.80
2019-03-12T06:50:31.310Z,7.30
2019-03-12T06:51:31.234Z,6.90
2019-03-12T06:52:31.164Z,7.00
2019-03-12T06:53:31.071Z,7.40
2019-03-12T06:54:30.991Z,7.20
2019-03-12T06:55:30.923Z,6.70
2019-03-12T06:56:30.851Z,7.20
2019-03-12T06:57:30.792Z,7.30
2019-03-12T06:58:30.718Z,7.30
2019-03-12T06:59:30.639Z,6.70
2019-03-12T07:00:30.564Z,6.80
2019-03-12T07:01:30.478Z,7.40
2019-03-12T07:02:30.404Z,7.00
2019-03-12T07:03:30.345Z,7.60
2019-03-12T07:04:30.270Z,7.10
2019-03-12T07:05:30.181Z,7.30
2019-03-12T07:06:30.115Z,7.40
2019-03-12T07:07:30.037Z,6.90
2019-03-12T07:08:29.960Z,7.00
2019-03-12T07:09:29.902Z,6.80
2019-03-12T07:10:29.829Z,6.80
2019-03-12T07:11:29.738Z,7.50
2019-03-12T07:12:29.708Z,6.60
2019-03-12T07:13:29.610Z,6.60
2019-03-12T07:14:29.538Z,7.00
2019-03-12T07:15:29.458Z,6.70
2019-03-12T07:16:29.390Z,6.60
2019-03-12T07:17:29.302Z,6.80
2019-03-12T07:18:29.227Z,6.70
2019-03-12T07:19:29.162Z,6.50
2019-03-12T07:20:29.090Z,7.30
2019-03-12T07:21:29.009Z,7.40
2019-03-12T07:22:28.930Z,7.70
2019-03-12T07:23:28.860Z,7.10
2019-03-12T07:24:28.785Z,7.60
2019-03-12T07:25:28.727Z,7.40
2019-03-12T07:26:28.652Z,7.10
2019-03-12T07:27:28.617Z,7.40
2019-03-12T07:28:28.506Z,7.20
2019-03-12T07:29:28.420Z,7.60
2019-03-12T07:30:28.351Z,7.30
2019-03-12T07:31:28.438Z,7.70
2019-03-12T07:32:28.201Z,7.10
2019-03-12T07:33:28.143Z,7.50
2019-03-12T07:34:36.632Z,7.50
2019-03-12T07:35:28.007Z,7.80
2019-03-12T07:36:27.915Z,7.60
2019-03-12T07:37:27.855Z,7.50
2019-03-12T07:38:27.780Z,7.70
2019-03-12T07:39:27.706Z,8.00
2019-03-12T07:40:27.646Z,8.30
2019-03-12T07:41:32.130Z,7.40
2019-03-12T07:42:27.515Z,7.30
2019-03-12T07:43:27.398Z,7.70
2019-03-12T07:44:27.355Z,7.50
2019-03-12T07:45:27.277Z,7.60
2019-03-12T07:46:27.198Z,7.70
2019-03-12T07:47:35.727Z,7.30
2019-03-12T07:48:27.053Z,7.00
2019-03-12T07:49:26.963Z,7.20
2019-03-12T07:50:26.890Z,7.60
2019-03-12T07:51:26.833Z,8.00
2019-03-12T07:52:26.760Z,7.10
2019-03-12T07:53:26.688Z,7.70
2019-03-12T07:54:26.601Z,7.80
2019-03-12T07:55:29.657Z,7.00
2019-03-12T07:56:26.497Z,7.00
2019-03-12T07:57:26.397Z,7.40
2019-03-12T07:58:35.577Z,7.50
2019-03-12T07:59:26.251Z,7.10
2019-03-12T08:00:26.185Z,7.00
2019-03-12T08:01:26.098Z,7.20
2019-03-12T08:02:26.028Z,6.80
2019-03-12T08:03:25.953Z,7.00
2019-03-12T08:04:25.890Z,6.90
2019-03-12T08:05:28.327Z,6.90
2019-03-12T08:06:25.746Z,7.20
2019-03-12T08:07:25.662Z,6.60
2019-03-12T08:08:25.591Z,6.90
2019-03-12T08:09:25.545Z,6.40
2019-03-12T08:10:25.465Z,7.30
2019-03-12T08:11:25.387Z,7.00
2019-03-12T08:12:25.313Z,6.70
2019-03-12T08:13:25.238Z,7.00
2019-03-12T08:14:26.850Z,6.90
2019-03-12T08:15:25.097Z,7.10
2019-03-12T08:16:25.029Z,6.90
2019-03-12T08:17:24.974Z,7.40
2019-03-12T08:18:24.872Z,7.10
2019-03-12T08:19:24.798Z,6.80
2019-03-12T08:20:24.726Z,6.50
2019-03-12T08:21:24.672Z,6.90
2019-03-12T08:22:24.598Z,6.70
2019-03-12T08:23:24.511Z,6.90
2019-03-12T08:24:24.449Z,6.40
2019-03-12T08:25:24.385Z,6.80
2019-03-12T08:26:24.308Z,6.60
2019-03-12T08:27:26.068Z,7.00
2019-03-12T08:28:24.169Z,7.10
2019-03-12T08:29:24.086Z,7.20
2019-03-12T08:30:24.009Z,7.20
2019-03-12T08:31:23.940Z,7.30
2019-03-12T08:32:24.097Z,6.80
2019-03-12T08:33:23.814Z,6.80
2019-03-12T08:34:23.733Z,7.30
2019-03-12T08:35:23.665Z,7.30
2019-03-12T08:36:23.593Z,7.30
2019-03-12T08:37:23.508Z,7.00
2019-03-12T08:38:23.441Z,7.40
2019-03-12T08:39:23.384Z,7.30
2019-03-12T08:40:23.312Z,7.00
2019-03-12T08:41:23.230Z,6.60
2019-03-12T08:42:23.175Z,7.10
2019-03-12T08:43:23.078Z,6.50
2019-03-12T08:44:26.169Z,7.00
2019-03-12T08:45:22.953Z,6.70
2019-03-12T08:46:23.209Z,7.20
2019-03-12T08:47:22.814Z,6.60
2019-03-12T08:48:22.737Z,6.80
2019-03-12T08:49:22.659Z,6.60
2019-03-12T08:50:22.588Z,7.20
2019-03-12T08:51:22.513Z,6.70
2019-03-12T08:52:22.448Z,7.00
2019-03-12T08:53:22.385Z,6.80
2019-03-12T08:54:22.310Z,7.60
2019-03-12T08:55:22.267Z,7.70
2019-03-12T08:56:22.159Z,8.20
2019-03-12T08:57:22.100Z,7.00
2019-03-12T08:58:22.033Z,7.50
2019-03-12T08:59:21.957Z,8.60
2019-03-12T09:00:23.989Z,21.10
2019-03-12T09:01:21.805Z,11.60
2019-03-12T09:02:21.741Z,8.90
2019-03-12T09:03:21.667Z,8.50
2019-03-12T09:04:21.595Z,8.20
2019-03-12T09:05:21.537Z,7.90
2019-03-12T09:06:21.462Z,8.40
2019-03-12T09:07:21.393Z,8.50
2019-03-12T09:08:21.354Z,8.40
2019-03-12T09:09:21.243Z,8.90
2019-03-12T09:10:21.169Z,8.80
2019-03-12T09:11:21.111Z,9.40
2019-03-12T09:12:21.045Z,10.00
2019-03-12T09:13:20.959Z,10.00
2019-03-12T09:14:20.885Z,9.20
2019-03-12T09:15:20.825Z,10.40
2019-03-12T09:16:20.746Z,9.60
2019-03-12T09:17:20.695Z,10.10
2019-03-12T09:18:20.616Z,9.70
2019-03-12T09:19:20.537Z,9.90
2019-03-12T09:20:20.463Z,10.50
2019-03-12T09:21:20.405Z,8.90
2019-03-12T09:22:20.336Z,8.70
2019-03-12T09:23:20.269Z,8.60
2019-03-12T09:24:20.196Z,8.60
2019-03-12T09:25:20.122Z,8.30
2019-03-12T09:26:20.043Z,8.50
2019-03-12T09:27:19.980Z,7.90
2019-03-12T09:28:19.921Z,8.00
2019-03-12T09:29:19.833Z,8.80
2019-03-12T09:30:19.755Z,8.50
2019-03-12T09:31:19.691Z,8.60
2019-03-12T09:32:19.615Z,8.60
2019-03-12T09:33:19.565Z,9.20
2019-03-12T09:34:19.491Z,8.60
2019-03-12T09:35:19.419Z,8.80
2019-03-12T09:36:19.346Z,9.00
2019-03-12T09:37:19.261Z,9.10
2019-03-12T09:38:19.193Z,10.30
2019-03-12T09:39:19.123Z,10.10
2019-03-12T09:40:19.051Z,9.60
2019-03-12T09:41:18.990Z,9.30
2019-03-12T09:42:18.924Z,9.70
2019-03-12T09:43:18.835Z,9.50
2019-03-12T09:44:18.770Z,9.50
2019-03-12T09:45:18.712Z,9.10
2019-03-12T09:46:18.642Z,9.80
2019-03-12T09:47:18.568Z,11.10
2019-03-12T09:48:18.497Z,10.20
2019-03-12T09:49:18.411Z,11.50
2019-03-12T09:50:18.343Z,9.90
2019-03-12T09:51:18.271Z,10.10
2019-03-12T09:52:18.199Z,9.00
2019-03-12T09:53:18.140Z,8.40
2019-03-12T09:54:18.068Z,9.60
2019-03-12T09:55:17.999Z,9.30
2019-03-12T09:56:17.931Z,9.20
2019-03-12T09:57:17.847Z,9.10
2019-03-12T09:58:17.779Z,9.80
2019-03-12T09:59:17.764Z,9.00
2019-03-12T10:00:17.648Z,8.80
2019-03-12T10:01:17.563Z,9.30
2019-03-12T10:02:17.492Z,9.50
2019-03-12T10:03:17.428Z,9.30
2019-03-12T10:04:17.476Z,8.70
2019-03-12T10:05:17.294Z,8.90
2019-03-12T10:06:17.227Z,8.70
2019-03-12T10:07:17.160Z,8.10
2019-03-12T10:08:17.086Z,8.40
2019-03-12T10:09:16.998Z,8.50
2019-03-12T10:10:16.935Z,8.20
2019-03-12T10:11:16.857Z,8.90
2019-03-12T10:12:16.785Z,9.20
2019-03-12T10:13:16.731Z,8.80
2019-03-12T10:14:16.657Z,8.20
2019-03-12T10:15:16.581Z,8.30
2019-03-12T10:16:16.507Z,8.90
2019-03-12T10:17:16.451Z,9.00
2019-03-12T10:18:16.383Z,8.30
2019-03-12T10:19:16.306Z,8.60
2019-03-12T10:20:16.240Z,8.40
2019-03-12T10:21:16.151Z,8.50
2019-03-12T10:22:16.083Z,9.10
2019-03-12T10:23:16.023Z,8.60
2019-03-12T10:24:15.955Z,9.50
2019-03-12T10:25:15.869Z,8.20
2019-03-12T10:26:15.799Z,9.10
2019-03-12T10:27:15.731Z,8.40
2019-03-12T10:28:15.661Z,8.00
2019-03-12T10:29:15.604Z,7.70
2019-03-12T10:30:15.531Z,7.90
2019-03-12T10:31:15.451Z,8.20
2019-03-12T10:32:15.383Z,8.40
2019-03-12T10:33:15.327Z,8.30
2019-03-12T10:34:15.253Z,8.90
2019-03-12T10:35:15.180Z,8.70
2019-03-12T10:36:15.314Z,10.40
2019-03-12T10:37:16.584Z,10.10
2019-03-12T10:38:14.954Z,11.00
2019-03-12T10:39:14.887Z,10.10
2019-03-12T10:40:14.815Z,8.70
2019-03-12T10:41:14.757Z,8.00
2019-03-12T10:42:14.687Z,6.90
2019-03-12T10:43:14.618Z,6.90
2019-03-12T10:44:14.581Z,6.80
2019-03-12T10:45:14.463Z,7.20
2019-03-12T10:46:14.389Z,6.90
2019-03-12T10:47:14.338Z,7.00
2019-03-12T10:48:14.261Z,6.80
2019-03-12T10:49:14.181Z,7.60
2019-03-12T10:50:14.113Z,7.70
2019-03-12T10:51:14.044Z,7.40
2019-03-12T10:52:13.971Z,7.30
2019-03-12T10:53:13.921Z,7.80
2019-03-12T10:54:13.841Z,7.00
2019-03-12T10:55:14.124Z,6.70
2019-03-12T10:56:13.700Z,7.20
2019-03-12T10:57:13.633Z,6.80
2019-03-12T10:58:13.563Z,7.60
2019-03-12T10:59:13.490Z,7.60
2019-03-12T11:00:13.421Z,7.30
2019-03-12T11:01:13.339Z,8.40
2019-03-12T11:02:13.270Z,7.50
2019-03-12T11:03:13.213Z,6.90
2019-03-12T11:04:13.146Z,7.20
2019-03-12T11:05:13.059Z,7.10
2019-03-12T11:06:12.990Z,6.30
2019-03-12T11:07:16.705Z,6.80
2019-03-12T11:08:12.851Z,6.90
2019-03-12T11:09:12.850Z,6.90
2019-03-12T11:10:12.763Z,7.40
2019-03-12T11:11:12.654Z,7.00
2019-03-12T11:12:12.584Z,6.70
2019-03-12T11:13:14.713Z,5.80
2019-03-12T11:14:12.451Z,5.60
2019-03-12T11:15:12.359Z,6.20
2019-03-12T11:16:12.289Z,4.90
2019-03-12T11:17:12.234Z,4.90
2019-03-12T11:18:12.163Z,5.20
2019-03-12T11:19:12.080Z,6.20
2019-03-12T11:20:12.007Z,6.00
2019-03-12T11:21:11.953Z,4.80
2019-03-12T11:22:11.879Z,4.70
2019-03-12T11:23:11.816Z,5.50
2019-03-12T11:24:11.742Z,5.60
2019-03-12T11:25:11.657Z,7.90
2019-03-12T11:26:11.589Z,5.80
2019-03-12T11:27:11.533Z,4.90
2019-03-12T11:28:11.462Z,4.90
2019-03-12T11:29:11.375Z,4.80
2019-03-12T11:30:11.305Z,4.60
2019-03-12T11:31:11.235Z,4.90
2019-03-12T11:32:11.161Z,4.50
2019-03-12T11:33:11.105Z,4.40
2019-03-12T11:34:11.043Z,4.70
2019-03-12T11:35:10.951Z,5.80
2019-03-12T11:36:10.887Z,5.10
2019-03-12T11:37:10.875Z,5.10
2019-03-12T11:38:10.796Z,4.90
2019-03-12T11:39:10.683Z,4.90
2019-03-12T11:40:10.647Z,5.40
2019-03-12T11:41:10.526Z,5.70
2019-03-12T11:42:10.457Z,5.80
2019-03-12T11:43:10.383Z,5.30
2019-03-12T11:44:10.314Z,5.10
2019-03-12T11:45:15.005Z,5.40
2019-03-12T11:46:10.207Z,5.40
2019-03-12T11:47:10.119Z,5.20
2019-03-12T11:48:10.318Z,5.70
2019-03-12T11:49:09.979Z,5.70
2019-03-12T11:50:09.894Z,5.10
2019-03-12T11:51:09.944Z,5.10
2019-03-12T11:52:09.767Z,5.00
2019-03-12T11:53:09.786Z,5.60
2019-03-12T11:54:09.837Z,5.50
2019-03-12T11:55:09.539Z,5.10
2019-03-12T11:56:09.474Z,5.10
2019-03-12T11:57:09.416Z,5.40
2019-03-12T11:58:09.353Z,5.20
2019-03-12T11:59:09.300Z,5.50
2019-03-12T12:00:09.203Z,4.40
2019-03-12T12:01:09.152Z,4.30
2019-03-12T12:02:09.052Z,4.50
2019-03-12T12:03:08.988Z,4.60
2019-03-12T12:04:08.912Z,4.50
2019-03-12T12:05:08.858Z,4.40
2019-03-12T12:06:08.787Z,3.90
2019-03-12T12:07:08.708Z,4.20
2019-03-12T12:08:08.634Z,3.90
2019-03-12T12:09:08.593Z,4.10
2019-03-12T12:10:08.503Z,4.20
2019-03-12T12:11:08.438Z,4.00
2019-03-12T12:12:08.368Z,3.80
2019-03-12T12:13:08.281Z,3.80
2019-03-12T12:14:08.222Z,3.90
2019-03-12T12:15:08.145Z,4.00
2019-03-12T12:16:08.070Z,4.50
2019-03-12T12:17:08.014Z,3.90
2019-03-12T12:18:07.944Z,3.90
2019-03-12T12:19:07.879Z,4.40
2019-03-12T12:20:07.807Z,4.10
2019-03-12T12:21:07.759Z,4.60
2019-03-12T12:22:07.653Z,4.50
2019-03-12T12:23:07.591Z,4.40
2019-03-12T12:24:07.526Z,4.40
2019-03-12T12:25:07.443Z,4.60
2019-03-12T12:26:07.374Z,5.00
2019-03-12T12:27:07.310Z,5.10
2019-03-12T12:28:07.234Z,5.40
2019-03-12T12:29:07.175Z,4.90
2019-03-12T12:30:07.107Z,5.30
2019-03-12T12:31:07.032Z,5.20
2019-03-12T12:32:06.956Z,5.50
2019-03-12T12:33:06.896Z,5.10
2019-03-12T12:34:06.831Z,5.20
2019-03-12T12:35:06.761Z,5.40
2019-03-12T12:36:06.688Z,6.00
2019-03-12T12:37:06.612Z,6.00
2019-03-12T12:38:06.538Z,6.00
2019-03-12T12:39:06.483Z,5.30
2019-03-12T12:40:06.409Z,5.80
2019-03-12T12:41:06.338Z,5.40
2019-03-12T12:42:06.260Z,5.50
2019-03-12T12:43:06.194Z,5.20
2019-03-12T12:44:06.124Z,5.40
2019-03-12T12:45:06.068Z,6.00
2019-03-12T12:46:06.003Z,5.40
2019-03-12T12:47:05.924Z,5.60
2019-03-12T12:48:05.862Z,6.10
2019-03-12T12:49:05.778Z,5.30
2019-03-12T12:50:05.706Z,5.70
2019-03-12T12:51:05.646Z,5.20
2019-03-12T12:52:05.586Z,5.50
2019-03-12T12:53:05.513Z,6.30
2019-03-12T12:54:05.532Z,5.80
2019-03-12T12:55:05.357Z,5.60
2019-03-12T12:56:05.288Z,5.30
2019-03-12T12:57:05.233Z,5.20
2019-03-12T12:58:05.170Z,5.40
2019-03-12T12:59:05.092Z,4.70
2019-03-12T13:00:05.026Z,4.60
2019-03-12T13:01:04.942Z,5.10
2019-03-12T13:02:04.876Z,5.30
2019-03-12T13:03:04.802Z,4.80
2019-03-12T13:04:04.732Z,5.10
2019-03-12T13:05:04.683Z,5.10
2019-03-12T13:06:04.610Z,4.90
2019-03-12T13:07:04.545Z,5.20
2019-03-12T13:08:04.470Z,5.20
2019-03-12T13:09:04.388Z,5.00
2019-03-12T13:10:04.316Z,4.90
2019-03-12T13:11:04.258Z,4.70
2019-03-12T13:12:04.191Z,5.10
2019-03-12T13:13:04.157Z,5.60
2019-03-12T13:14:04.038Z,5.60
2019-03-12T13:15:03.974Z,5.90
2019-03-12T13:16:03.896Z,6.00